Time;durP1;ratioP1;P1;durP2;ratioP2;P2;SDS_P1;SDS_P2;PMS_P1;PMS_P2;Temp;Humidity;BMP_temperature;BMP_pressure;BME280_temperature;BME280_humidity;BME280_pressure;Samples;Min_cycle;Max_cycle;Signal;HPM_P1;HPM_P2
2021/09/11 05:07:00;;;;;;;19.35;11.30;;;;;;;17.22;62.45;100127.06;5487809;23;20139;-81
2021/09/11 05:09:27;;;;;;;19.08;11.63;;;;;;;17.33;62.03;100120.94;4896970;29;20040;-79
2021/09/11 05:11:54;;;;;;;22.27;11.38;;;;;;;17.33;62.20;100120.09;4903607;29;20440;-83
2021/09/11 05:14:21;;;;;;;20.73;12.70;;;;;;;17.43;61.82;100121.03;4899172;29;20088;-81
2021/09/11 05:16:48;;;;;;;16.15;11.55;;;;;;;17.62;61.36;100125.63;4901535;29;20036;-80
2021/09/11 05:19:15;;;;;;;15.30;12.13;;;;;;;17.67;60.57;100129.56;4921137;29;20036;-83
2021/09/11 05:21:41;;;;;;;19.20;13.60;;;;;;;17.84;60.29;100130.84;4921040;29;20025;-79
2021/09/11 05:24:08;;;;;;;18.60;14.68;;;;;;;17.99;59.87;100134.03;4921158;29;20060;-79
2021/09/11 05:26:35;;;;;;;18.33;13.75;;;;;;;18.04;59.56;100127.41;4919779;29;20088;-80
2021/09/11 05:29:01;;;;;;;20.50;11.90;;;;;;;18.29;59.02;100123.56;4918507;29;20035;-81
2021/09/11 05:31:28;;;;;;;17.25;10.45;;;;;;;18.39;58.55;100125.44;4923311;29;20036;-81
2021/09/11 05:33:58;;;;;;;15.77;11.82;;;;;;;18.38;57.95;100132.53;4921396;29;20064;-77
2021/09/11 05:36:25;;;;;;;13.55;10.43;;;;;;;18.38;58.02;100135.16;4915817;29;20036;-79
2021/09/11 05:38:52;;;;;;;14.98;9.90;;;;;;;18.38;58.79;100139.63;4919821;29;20036;-79
2021/09/11 05:41:18;;;;;;;15.52;9.90;;;;;;;18.40;58.63;100140.31;4904788;29;20391;-78
2021/09/11 05:43:45;;;;;;;15.50;9.25;;;;;;;18.44;58.57;100132.00;4905573;29;20045;-80
2021/09/11 05:46:12;;;;;;;13.35;9.65;;;;;;;18.52;58.52;100139.25;4902783;29;20104;-78
2021/09/11 05:48:39;;;;;;;12.55;8.55;;;;;;;18.80;57.66;100143.91;4907869;29;20049;-78
2021/09/11 05:51:05;;;;;;;16.83;8.77;;;;;;;18.97;57.17;100144.25;4900874;29;20045;-79
2021/09/11 05:53:32;;;;;;;15.77;9.45;;;;;;;19.18;56.79;100150.31;4899904;29;20045;-80
2021/09/11 05:55:59;;;;;;;14.43;8.50;;;;;;;19.18;57.23;100150.31;4899825;29;20053;-79
2021/09/11 05:58:26;;;;;;;14.63;8.57;;;;;;;19.21;57.13;100150.03;4899573;29;20125;-79
2021/09/11 06:00:52;;;;;;;11.55;9.23;;;;;;;19.44;56.28;100161.25;4900079;29;20503;-80
2021/09/11 06:03:20;;;;;;;15.15;9.30;;;;;;;19.86;55.11;100156.56;4900487;29;20451;-79
2021/09/11 06:05:47;;;;;;;17.80;12.35;;;;;;;20.29;53.67;100151.84;4899627;29;20395;-79
2021/09/11 06:08:14;;;;;;;13.90;11.18;;;;;;;20.46;53.72;100147.66;4882624;29;20056;-80
2021/09/11 06:10:40;;;;;;;16.27;10.43;;;;;;;20.69;53.27;100153.47;4894390;29;20049;-80
2021/09/11 06:13:07;;;;;;;13.73;9.40;;;;;;;20.86;52.57;100153.53;4886404;29;20056;-78
2021/09/11 06:15:34;;;;;;;18.75;11.57;;;;;;;20.94;52.32;100147.53;4880721;29;20088;-78
2021/09/11 06:18:01;;;;;;;14.75;10.98;;;;;;;21.00;51.77;100152.25;4881406;29;20047;-79
2021/09/11 06:20:28;;;;;;;16.42;14.60;;;;;;;21.17;50.83;100153.28;4881960;29;20115;-79
2021/09/11 06:22:55;;;;;;;20.17;15.15;;;;;;;21.21;50.65;100145.88;4882387;29;20045;-80
2021/09/11 06:25:22;;;;;;;25.15;20.23;;;;;;;21.40;49.60;100149.28;4880993;29;20400;-79
2021/09/11 06:27:54;;;;;;;23.25;21.00;;;;;;;21.43;49.41;100154.28;4881995;29;20108;-80
2021/09/11 06:30:22;;;;;;;25.77;21.27;;;;;;;21.90;48.56;100154.09;4880910;29;20053;-80
2021/09/11 06:32:50;;;;;;;20.42;16.80;;;;;;;21.66;49.03;100157.34;4880645;29;20053;-81
2021/09/11 06:35:17;;;;;;;29.38;21.98;;;;;;;21.76;48.24;100157.28;4879813;29;20051;-81
2021/09/11 06:37:44;;;;;;;27.42;19.00;;;;;;;21.91;48.05;100154.94;4880311;29;20132;-81
2021/09/11 06:40:11;;;;;;;27.50;17.58;;;;;;;22.10;47.83;100161.88;4879445;29;20045;-82
2021/09/11 06:42:38;;;;;;;23.02;18.65;;;;;;;22.70;46.32;100160.22;4880029;29;20452;-82
2021/09/11 06:45:05;;;;;;;22.58;17.08;;;;;;;22.95;45.85;100157.72;4880335;29;20083;-81
2021/09/11 06:47:32;;;;;;;20.30;17.55;;;;;;;22.58;46.35;100163.28;4879568;29;20052;-81
2021/09/11 06:49:59;;;;;;;26.60;19.27;;;;;;;23.05;45.11;100158.44;4880288;29;20051;-80
2021/09/11 06:52:26;;;;;;;27.88;16.48;;;;;;;23.33;44.51;100159.06;4879889;29;20041;-81
2021/09/11 06:54:52;;;;;;;36.45;18.58;;;;;;;23.00;45.40;100168.72;4880357;29;20412;-81
2021/09/11 06:57:19;;;;;;;17.58;14.80;;;;;;;22.85;45.68;100162.28;4879811;29;20094;-81
2021/09/11 06:59:46;;;;;;;19.42;14.98;;;;;;;22.50;46.74;100164.06;4880454;29;20057;-81
2021/09/11 07:02:12;;;;;;;15.65;12.77;;;;;;;22.17;47.15;100163.00;4879793;29;20452;-77
2021/09/11 07:04:39;;;;;;;21.00;12.00;;;;;;;22.28;47.25;100164.56;4879614;29;20416;-80
2021/09/11 07:07:09;;;;;;;20.83;11.77;;;;;;;22.50;47.11;100169.38;4879902;29;20187;-79
2021/09/11 07:09:36;;;;;;;18.15;11.15;;;;;;;22.67;47.01;100170.31;4880248;29;20049;-76
2021/09/11 07:12:03;;;;;;;15.10;11.40;;;;;;;23.00;46.09;100166.88;4879946;29;20396;-82
2021/09/11 07:14:30;;;;;;;20.40;12.38;;;;;;;23.14;46.13;100159.31;4879507;29;20097;-80
2021/09/11 07:16:57;;;;;;;15.43;11.85;;;;;;;23.23;45.72;100159.19;4875494;29;20045;-79
2021/09/11 07:19:23;;;;;;;24.83;13.75;;;;;;;23.27;46.21;100165.00;4878356;29;20041;-82
2021/09/11 07:21:50;;;;;;;25.88;14.35;;;;;;;22.90;47.01;100173.31;4878873;29;20045;-82
2021/09/11 07:24:17;;;;;;;12.82;10.40;;;;;;;22.83;46.92;100170.41;4878111;29;20045;-82
2021/09/11 07:26:43;;;;;;;12.77;10.30;;;;;;;22.72;47.01;100168.03;4873181;29;20037;-84
2021/09/11 07:29:10;;;;;;;19.65;10.38;;;;;;;22.66;47.61;100163.34;4870748;29;20116;-78
2021/09/11 07:31:37;;;;;;;18.65;9.90;;;;;;;22.61;47.78;100168.31;4877090;29;20060;-80
2021/09/11 07:34:04;;;;;;;11.35;9.90;;;;;;;22.55;47.61;100163.63;4877760;29;20044;-81
2021/09/11 07:36:30;;;;;;;14.48;10.23;;;;;;;22.72;47.21;100168.03;4877988;29;20053;-80
2021/09/11 07:38:57;;;;;;;13.70;9.45;;;;;;;22.78;47.27;100166.56;4874614;29;20095;-79
2021/09/11 07:41:24;;;;;;;10.65;9.55;;;;;;;23.09;46.11;100172.25;4877684;29;20104;-80
2021/09/11 07:43:52;;;;;;;13.43;9.10;;;;;;;23.29;45.29;100180.81;4879387;29;20045;-80
2021/09/11 07:46:19;;;;;;;21.38;12.52;;;;;;;23.52;46.10;100163.28;4879042;29;20053;-83
2021/09/11 07:48:45;;;;;;;16.88;11.00;;;;;;;24.11;44.44;100171.22;4878179;29;20049;-79
2021/09/11 07:51:12;;;;;;;18.58;10.38;;;;;;;24.60;42.43;100165.88;4878806;29;20397;-81
2021/09/11 07:53:40;;;;;;;12.75;9.40;;;;;;;24.39;42.01;100167.22;4877702;29;20079;-80
2021/09/11 07:56:09;;;;;;;15.77;10.15;;;;;;;24.98;41.27;100161.59;4877978;29;20381;-82
2021/09/11 07:58:36;;;;;;;9.48;8.57;;;;;;;25.03;40.54;100162.75;4877443;29;20048;-87
2021/09/11 08:01:02;;;;;;;14.82;9.30;;;;;;;24.53;41.37;100163.91;4877985;29;20093;-83
2021/09/11 08:03:30;;;;;;;18.02;7.68;;;;;;;24.61;41.13;100163.06;4875456;29;20408;-77
2021/09/11 08:05:57;;;;;;;20.33;8.77;;;;;;;24.64;41.01;100161.88;4877903;29;20145;-80
2021/09/11 08:08:24;;;;;;;10.50;8.93;;;;;;;24.47;41.42;100161.91;4877853;29;20037;-83
2021/09/11 08:10:51;;;;;;;10.93;8.02;;;;;;;23.79;42.43;100167.50;4879985;29;20045;-95
2021/09/11 08:13:21;;;;;;;17.20;7.82;;;;;;;24.26;42.00;100164.22;4878086;29;20101;-84
2021/09/11 08:15:49;;;;;;;13.15;7.93;;;;;;;24.20;41.19;100159.56;4876124;29;20055;-85
2021/09/11 08:18:16;;;;;;;10.45;8.68;;;;;;;24.54;40.39;100160.22;4875413;29;20508;-80
2021/09/11 08:20:43;;;;;;;11.63;9.40;;;;;;;24.17;40.92;100162.56;4876964;29;20049;-83
2021/09/11 08:23:10;;;;;;;12.93;10.75;;;;;;;24.16;40.94;100168.88;4881429;29;20108;-81
2021/09/11 08:25:40;;;;;;;11.90;10.10;;;;;;;24.30;40.55;100165.56;4879161;29;20072;-87
2021/09/11 08:28:06;;;;;;;14.30;10.10;;;;;;;25.17;39.03;100160.41;4877453;29;20472;-86
2021/09/11 08:30:33;;;;;;;19.05;10.52;;;;;;;24.89;39.62;100166.16;4880142;29;20160;-85
2021/09/11 08:33:00;;;;;;;15.70;10.77;;;;;;;24.71;39.89;100174.34;4882140;29;20044;-86
2021/09/11 08:35:26;;;;;;;13.38;10.02;;;;;;;24.88;39.83;100163.66;4881779;29;20121;-87
2021/09/11 08:37:53;;;;;;;18.40;12.02;;;;;;;25.55;38.49;100169.41;4882602;29;20049;-87
2021/09/11 08:40:21;;;;;;;20.92;12.68;;;;;;;25.91;37.98;100153.69;4882924;29;20045;-87
2021/09/11 08:42:48;;;;;;;20.80;13.98;;;;;;;25.93;38.53;100165.00;4881052;29;20048;-85
2021/09/11 08:45:16;;;;;;;23.65;15.02;;;;;;;25.12;39.90;100170.78;4881433;29;20389;-86
2021/09/11 08:47:48;;;;;;;24.85;12.05;;;;;;;25.40;39.28;100166.63;4877807;29;20565;-86
2021/09/11 08:50:17;;;;;;;16.30;11.48;;;;;;;25.93;38.23;100156.16;4879176;29;20037;-87
2021/09/11 08:52:48;;;;;;;17.92;12.20;;;;;;;26.47;37.19;100156.91;4877975;29;20507;-85
2021/09/11 08:55:17;;;;;;;23.48;12.68;;;;;;;26.02;37.93;100153.25;4879080;29;20544;-86
2021/09/11 08:57:58;;;;;;;17.35;12.77;;;;;;;25.85;39.13;100159.75;4890221;29;20425;-85
2021/09/11 09:00:37;;;;;;;19.17;12.77;;;;;;;25.81;39.28;100156.59;4874759;29;20054;-85
2021/09/11 09:03:37;;;;;;;14.48;12.80;;;;;;;25.92;39.76;100150.00;4875184;29;20100;-85
2021/09/11 09:06:33;;;;;;;32.28;13.07;;;;;;;25.85;40.03;100157.06;4879993;29;20052;-87
2021/09/11 09:09:11;;;;;;;19.50;13.27;;;;;;;26.25;38.56;100157.75;4878224;29;20120;-86
2021/09/11 09:11:43;;;;;;;18.48;13.82;;;;;;;27.53;35.98;100155.66;4880982;29;20492;-87
2021/09/11 09:14:17;;;;;;;20.90;12.80;;;;;;;27.28;36.93;100154.38;4875837;29;20045;-86
2021/09/11 09:16:51;;;;;;;20.67;12.90;;;;;;;26.33;39.30;100155.00;4879290;29;20053;-87
2021/09/11 09:19:21;;;;;;;26.55;15.18;;;;;;;26.05;40.44;100155.59;4880723;29;20195;-86
2021/09/11 09:21:51;;;;;;;26.38;14.55;;;;;;;27.02;39.18;100149.47;4881031;29;20194;-86
2021/09/11 09:24:30;;;;;;;22.95;14.98;;;;;;;26.30;39.21;100150.03;4879687;29;20060;-87
2021/09/11 09:27:06;;;;;;;20.60;12.70;;;;;;;27.09;36.86;100148.56;4880034;29;20045;-86
2021/09/11 09:29:38;;;;;;;18.05;12.55;;;;;;;27.59;36.07;100146.91;4878321;29;20090;-84
2021/09/11 09:32:05;;;;;;;18.80;12.98;;;;;;;28.28;34.89;100140.13;4876996;29;20041;-83
2021/09/11 09:34:37;;;;;;;19.90;14.23;;;;;;;26.98;38.21;100137.47;4872704;29;20080;-86
2021/09/11 09:37:13;;;;;;;17.58;14.00;;;;;;;26.89;38.17;100142.09;4873293;29;20058;-85
2021/09/11 09:39:40;;;;;;;22.25;14.10;;;;;;;26.90;37.82;100151.78;4875996;29;20041;-84
2021/09/11 09:42:08;;;;;;;19.10;13.63;;;;;;;27.71;36.17;100135.72;4879241;29;20041;-84
2021/09/11 09:44:45;;;;;;;35.38;14.02;;;;;;;26.87;37.46;100146.81;4894915;29;20052;-88
2021/09/11 09:47:17;;;;;;;37.45;16.13;;;;;;;26.79;37.84;100152.22;4880851;29;20046;-86
2021/09/11 09:50:07;;;;;;;17.17;15.40;;;;;;;27.24;36.98;100134.34;4881009;29;20108;-82
2021/09/11 09:52:35;;;;;;;18.20;12.70;;;;;;;27.93;35.71;100135.53;4880263;29;20053;-82
2021/09/11 09:55:03;;;;;;;17.55;13.10;;;;;;;28.50;34.50;100123.03;4880731;29;20575;-83
2021/09/11 09:57:30;;;;;;;20.08;14.43;;;;;;;28.21;34.68;100129.38;4880135;29;20097;-84
2021/09/11 09:59:58;;;;;;;21.80;13.35;;;;;;;27.65;35.57;100124.72;4881009;29;20112;-86
2021/09/11 10:02:25;;;;;;;17.80;12.50;;;;;;;28.88;33.52;100130.69;4879784;29;20041;-81
2021/09/11 10:04:52;;;;;;;28.63;12.73;;;;;;;28.17;35.00;100134.28;4880219;29;20374;-87
2021/09/11 10:07:21;;;;;;;17.20;12.52;;;;;;;28.86;33.55;100127.34;4879998;29;20053;-84
2021/09/11 10:09:51;;;;;;;25.33;13.27;;;;;;;27.78;35.23;100134.75;4873060;29;20045;-87
2021/09/11 10:12:51;;;;;;;17.67;13.63;;;;;;;27.85;35.65;100126.78;4878982;29;20072;-86
2021/09/11 10:15:22;;;;;;;21.58;13.57;;;;;;;27.52;36.21;100140.63;4867469;29;20053;-87
2021/09/11 10:17:48;;;;;;;17.27;14.23;;;;;;;27.31;36.69;100138.75;4879427;29;20381;-87
2021/09/11 10:20:15;;;;;;;21.63;14.82;;;;;;;27.29;36.68;100132.75;4879023;29;20069;-88
2021/09/11 10:23:06;;;;;;;19.55;16.45;;;;;;;26.95;38.76;100132.50;4879151;29;20045;-86
2021/09/11 10:25:47;;;;;;;15.10;12.77;;;;;;;27.53;37.84;100134.25;4880013;29;20137;-84
2021/09/11 10:28:24;;;;;;;18.85;14.15;;;;;;;27.09;38.56;100129.84;4880808;29;20101;-85
2021/09/11 10:31:08;;;;;;;17.20;15.15;;;;;;;27.12;37.83;100118.78;4880334;29;20112;-85
2021/09/11 10:33:47;;;;;;;30.65;16.17;;;;;;;27.62;37.57;100124.28;4880726;29;20068;-85
2021/09/11 10:36:43;;;;;;;22.00;15.90;;;;;;;27.58;37.28;100120.31;4880300;29;20053;-87
2021/09/11 10:39:12;;;;;;;20.20;13.38;;;;;;;27.11;35.91;100119.81;4880891;29;20449;-87
2021/09/11 10:41:38;;;;;;;18.88;14.43;;;;;;;26.75;38.52;100122.38;4880840;29;20072;-88
2021/09/11 10:44:07;;;;;;;22.75;15.05;;;;;;;26.77;38.33;100116.84;4881871;29;20041;-88
2021/09/11 10:46:47;;;;;;;17.55;14.20;;;;;;;26.38;38.06;100120.56;4882294;29;20080;-89
2021/09/11 10:49:36;;;;;;;17.63;15.40;;;;;;;26.70;38.62;100110.56;4882082;29;20101;-87
2021/09/11 10:52:09;;;;;;;19.98;14.38;;;;;;;27.13;37.80;100107.06;4880713;29;20077;-82
2021/09/11 10:54:41;;;;;;;18.77;15.15;;;;;;;26.46;40.55;100117.00;4880693;29;20452;-92
2021/09/11 10:57:18;;;;;;;21.02;15.43;;;;;;;26.86;36.94;100113.06;4880426;29;20053;-90
2021/09/11 10:59:46;;;;;;;20.20;18.10;;;;;;;26.63;39.76;100119.34;4884177;29;20059;-92
2021/09/11 11:02:22;;;;;;;26.55;16.92;;;;;;;27.03;38.85;100113.69;4882430;29;20104;-91
2021/09/11 11:04:53;;;;;;;27.88;18.88;;;;;;;26.48;39.69;100115.81;4884627;29;20037;-89
2021/09/11 11:07:23;;;;;;;24.85;18.60;;;;;;;26.43;40.41;100110.19;4883477;29;20105;-91
2021/09/11 11:09:52;;;;;;;23.17;19.08;;;;;;;26.53;40.48;100108.09;4893016;29;20117;-91
2021/09/11 11:12:20;;;;;;;21.42;18.20;;;;;;;26.86;38.64;100110.38;4884414;29;20045;-91
2021/09/11 11:14:48;;;;;;;25.38;18.38;;;;;;;26.41;37.99;100106.81;4880802;29;20072;-92
2021/09/11 11:17:17;;;;;;;26.35;20.65;;;;;;;26.67;39.82;100097.56;4880600;29;20520;-91
2021/09/11 11:19:46;;;;;;;23.05;18.45;;;;;;;27.82;35.62;100093.19;4879641;29;20049;-90
2021/09/11 11:22:24;;;;;;;25.55;17.75;;;;;;;27.25;37.43;100096.69;4878960;29;20052;-89
2021/09/11 11:24:51;;;;;;;28.48;17.10;;;;;;;28.02;36.38;100103.22;4880090;29;20560;-89
2021/09/11 11:27:23;;;;;;;20.98;16.15;;;;;;;28.91;33.99;100093.53;4894644;29;20504;-89
2021/09/11 11:30:16;;;;;;;23.23;16.50;;;;;;;28.07;33.11;100093.63;4877741;29;20049;-85
2021/09/11 11:32:45;;;;;;;26.35;17.65;;;;;;;27.90;34.35;100090.34;4916368;29;20052;-92
2021/09/11 11:35:14;;;;;;;24.70;18.33;;;;;;;28.65;33.13;100083.50;4900744;29;20070;-90
2021/09/11 11:37:42;;;;;;;28.90;18.63;;;;;;;28.03;35.01;100083.47;4898536;29;20089;-90
2021/09/11 11:40:12;;;;;;;25.10;18.13;;;;;;;28.35;34.48;100077.56;4881542;29;20056;-86
2021/09/11 11:42:42;;;;;;;26.10;16.58;;;;;;;29.17;32.98;100076.72;4880044;29;20049;-86
2021/09/11 11:45:14;;;;;;;21.88;16.42;;;;;;;29.13;32.96;100072.78;4880022;29;20047;-87
2021/09/11 11:47:47;;;;;;;25.13;17.60;;;;;;;28.43;33.91;100072.03;4879145;29;20101;-87
2021/09/11 11:50:18;;;;;;;18.50;15.13;;;;;;;28.98;33.34;100066.78;4878554;29;20052;-88
2021/09/11 11:52:52;;;;;;;27.13;17.50;;;;;;;28.90;33.21;100069.59;4879099;29;20481;-91
2021/09/11 11:55:21;;;;;;;24.98;16.85;;;;;;;28.93;33.75;100067.38;4879683;29;20116;-86
2021/09/11 11:57:47;;;;;;;26.08;17.33;;;;;;;28.70;33.33;100062.25;4879654;29;20091;-88
2021/09/11 12:00:17;;;;;;;24.45;15.93;;;;;;;29.30;33.03;100059.84;4879880;29;20045;-86
2021/09/11 12:02:50;;;;;;;24.35;16.30;;;;;;;29.95;31.77;100057.47;4880603;29;20108;-93
2021/09/11 12:05:17;;;;;;;18.40;15.65;;;;;;;29.97;30.81;100050.00;4881412;29;20072;-92
2021/09/11 12:08:09;;;;;;;17.63;15.15;;;;;;;29.26;32.00;100055.09;4879276;29;20053;-92
2021/09/11 12:10:36;;;;;;;31.20;15.80;;;;;;;29.07;33.07;100044.09;4884149;29;20105;-91
2021/09/11 12:13:07;;;;;;;24.00;18.77;;;;;;;28.11;35.13;100056.53;4883876;29;20389;-91
2021/09/11 12:15:36;;;;;;;20.25;17.38;;;;;;;27.68;36.67;100054.69;4894028;29;20512;-90
2021/09/11 12:18:12;;;;;;;20.48;15.00;;;;;;;27.71;36.35;100058.06;4883307;29;20452;-90
2021/09/11 12:20:47;;;;;;;26.85;18.08;;;;;;;27.44;37.10;100051.59;4881348;29;20105;-89
2021/09/11 12:23:29;;;;;;;23.98;20.33;;;;;;;26.61;39.18;100054.50;4880564;29;20053;-89
2021/09/11 12:26:06;;;;;;;27.25;18.85;;;;;;;26.52;38.91;100054.78;4882188;29;20045;-89
2021/09/11 12:28:35;;;;;;;27.35;16.67;;;;;;;26.78;36.92;100040.94;4881327;29;20045;-88
2021/09/11 12:31:06;;;;;;;21.05;15.93;;;;;;;26.89;36.76;100045.81;4878325;29;20045;-88
2021/09/11 12:33:51;;;;;;;23.27;15.38;;;;;;;26.29;37.32;100047.66;4879019;29;20064;-87
2021/09/11 12:36:31;;;;;;;;;;;;;;;26.85;36.29;100044.53;4880486;29;20097;-87
2021/09/11 12:39:11;;;;;;;23.65;15.07;;;;;;;26.76;36.40;100042.97;4881207;29;19924;-87
2021/09/11 12:41:38;;;;;;;22.83;15.20;;;;;;;27.08;36.41;100039.06;4876596;29;20136;-88
2021/09/11 12:44:04;;;;;;;26.42;17.55;;;;;;;26.77;36.46;100039.28;4881430;29;20064;-87
2021/09/11 12:46:34;;;;;;;23.60;18.45;;;;;;;26.80;36.90;100033.56;4882211;29;20137;-87
2021/09/11 12:49:03;;;;;;;20.60;14.68;;;;;;;27.40;35.72;100021.72;4883634;29;20041;-87
2021/09/11 12:51:30;;;;;;;33.17;16.23;;;;;;;27.89;34.63;100023.59;4883293;29;20053;-88
2021/09/11 12:53:57;;;;;;;22.38;15.65;;;;;;;27.34;34.90;100025.16;4883850;29;20049;-89
2021/09/11 12:56:24;;;;;;;25.75;18.15;;;;;;;27.30;34.82;100016.66;4885134;29;20069;-90
2021/09/11 12:58:53;;;;;;;21.20;15.50;;;;;;;27.03;34.91;100015.53;4881832;29;20413;-87
2021/09/11 13:01:20;;;;;;;25.35;16.63;;;;;;;27.46;33.77;100010.22;4883227;29;20049;-88
2021/09/11 13:03:49;;;;;;;25.50;14.80;;;;;;;28.00;33.92;100008.84;4871164;29;20069;-87
2021/09/11 13:06:17;;;;;;;19.05;15.13;;;;;;;27.48;34.45;100008.19;4864285;29;20090;-86
2021/09/11 13:08:44;;;;;;;17.83;14.73;;;;;;;27.34;34.36;100006.41;4870722;29;20488;-86
2021/09/11 13:11:12;;;;;;;16.83;12.05;;;;;;;27.88;33.67;100011.22;4883154;29;20568;-86
2021/09/11 13:13:40;;;;;;;22.75;13.98;;;;;;;28.00;33.62;100004.31;4882627;29;20096;-86
2021/09/11 13:16:07;;;;;;;20.48;12.68;;;;;;;27.54;33.59;100004.75;4883969;29;20053;-86
2021/09/11 13:18:37;;;;;;;12.93;11.30;;;;;;;27.44;32.67;99998.06;4887120;29;20053;-95
2021/09/11 13:21:09;;;;;;;20.38;13.07;;;;;;;27.41;32.78;100000.09;4888078;29;20045;-92
2021/09/11 13:23:36;;;;;;;19.73;12.88;;;;;;;27.51;32.70;99991.75;4888375;29;20049;-93
2021/09/11 13:26:05;;;;;;;32.83;14.30;;;;;;;27.42;33.20;99990.22;4887404;29;20489;-86
2021/09/11 13:28:31;;;;;;;18.88;13.65;;;;;;;27.01;33.48;99985.47;4886080;29;20045;-85
2021/09/11 13:30:58;;;;;;;18.48;12.98;;;;;;;26.83;34.13;99983.19;4885055;29;20045;-86
2021/09/11 13:33:27;;;;;;;17.63;13.05;;;;;;;27.02;34.23;99983.63;4887723;29;20101;-87
2021/09/11 13:35:54;;;;;;;19.02;12.45;;;;;;;27.19;34.03;99977.03;4884425;29;20052;-87
2021/09/11 13:38:21;;;;;;;19.15;13.18;;;;;;;27.17;34.13;99973.72;4883264;29;20053;-87
2021/09/11 13:40:47;;;;;;;13.90;12.25;;;;;;;26.94;34.35;99975.72;4883595;29;20061;-85
2021/09/11 13:43:14;;;;;;;19.98;13.23;;;;;;;26.65;35.04;99977.44;4882424;29;20041;-85
2021/09/11 13:45:48;;;;;;;20.25;13.23;;;;;;;26.73;35.18;99973.81;4882327;29;20069;-85
2021/09/11 13:48:15;;;;;;;15.90;12.38;;;;;;;26.73;35.78;99979.16;4882363;29;20087;-84
2021/09/11 13:50:47;;;;;;;20.85;14.80;;;;;;;26.67;35.06;99979.94;4883680;29;20053;-91
2021/09/11 13:53:13;;;;;;;16.55;13.00;;;;;;;26.97;34.47;99973.50;4880777;29;20580;-82
2021/09/11 13:55:40;;;;;;;18.45;13.93;;;;;;;26.69;35.12;99972.56;4881135;29;20057;-81
2021/09/11 13:58:07;;;;;;;14.23;12.43;;;;;;;27.01;34.54;99965.94;4880558;29;20045;-81
2021/09/11 14:00:34;;;;;;;18.40;13.52;;;;;;;26.78;34.92;99956.19;4880100;29;20045;-82
2021/09/11 14:03:02;;;;;;;21.13;13.77;;;;;;;26.83;35.44;99958.31;4879927;29;20066;-82
2021/09/11 14:05:29;;;;;;;18.48;12.57;;;;;;;26.68;35.51;99965.53;4880927;29;20056;-81
2021/09/11 14:07:56;;;;;;;19.92;13.55;;;;;;;27.02;35.15;99960.38;4878050;29;20450;-81
2021/09/11 14:10:23;;;;;;;16.63;12.90;;;;;;;27.26;33.93;99963.72;4876557;29;20057;-81
2021/09/11 14:12:50;;;;;;;15.80;12.90;;;;;;;27.02;34.50;99962.22;4880320;29;20628;-81
2021/09/11 14:15:19;;;;;;;19.20;11.30;;;;;;;26.63;34.85;99966.94;4880492;29;20049;-79
2021/09/11 14:17:47;;;;;;;15.63;12.05;;;;;;;26.51;35.20;99957.72;4879061;29;20047;-78
2021/09/11 14:20:18;;;;;;;14.65;12.77;;;;;;;26.74;35.30;99956.75;4879525;29;20045;-79
2021/09/11 14:22:49;;;;;;;15.35;13.00;;;;;;;26.54;34.92;99957.38;4880634;29;20484;-81
2021/09/11 14:25:17;;;;;;;12.52;11.15;;;;;;;26.78;35.21;99953.53;4879962;29;20045;-81
2021/09/11 14:27:45;;;;;;;15.70;12.48;;;;;;;27.24;33.60;99953.22;4879435;29;20065;-80
2021/09/11 14:30:15;;;;;;;18.38;11.23;;;;;;;27.03;34.60;99947.81;4872338;29;20380;-80
2021/09/11 14:32:43;;;;;;;14.07;11.93;;;;;;;27.05;34.97;99954.63;4878387;29;20053;-81
2021/09/11 14:35:10;;;;;;;17.90;10.93;;;;;;;26.62;35.33;99951.91;4880015;29;20037;-81
2021/09/11 14:37:37;;;;;;;13.70;9.77;;;;;;;26.86;33.98;99941.91;4879866;29;20041;-81
2021/09/11 14:40:06;;;;;;;14.23;11.07;;;;;;;26.78;34.15;99944.69;4881078;29;20041;-80
2021/09/11 14:42:33;;;;;;;11.07;10.15;;;;;;;26.79;33.95;99939.16;4880033;29;20140;-85
2021/09/11 14:45:17;;;;;;;16.88;10.32;;;;;;;26.81;34.66;99934.44;4881269;29;20373;-82
2021/09/11 14:47:45;;;;;;;10.93;9.90;;;;;;;27.12;33.74;99939.53;4892812;29;20041;-85
2021/09/11 14:50:23;;;;;;;13.82;9.65;;;;;;;27.25;33.54;99943.34;4883556;29;20045;-91
2021/09/11 14:52:49;;;;;;;12.93;10.82;;;;;;;27.39;34.14;99937.09;4883761;29;20052;-89
2021/09/11 14:55:17;;;;;;;12.27;10.98;;;;;;;27.34;33.72;99937.66;4882029;29;20084;-90
2021/09/11 14:57:45;;;;;;;15.43;11.50;;;;;;;27.36;32.74;99932.09;4881305;29;20045;-93
2021/09/11 15:00:13;;;;;;;14.13;10.82;;;;;;;27.24;33.16;99934.47;4888988;29;20112;-90
2021/09/11 15:02:39;;;;;;;14.45;10.02;;;;;;;27.48;34.00;99929.72;4881413;29;20457;-90
2021/09/11 15:05:07;;;;;;;13.63;9.73;;;;;;;27.46;33.13;99927.25;4881828;29;20140;-86
2021/09/11 15:07:34;;;;;;;15.25;8.88;;;;;;;27.44;32.93;99923.94;4895698;29;20057;-87
2021/09/11 15:10:03;;;;;;;12.30;8.70;;;;;;;27.28;32.94;99922.38;4881688;29;20052;-87
2021/09/11 15:12:31;;;;;;;10.70;8.93;;;;;;;27.41;32.85;99922.47;4880996;29;20041;-86
2021/09/11 15:14:59;;;;;;;10.27;8.98;;;;;;;27.45;32.43;99922.09;4881223;29;20067;-88
2021/09/11 15:17:27;;;;;;;14.00;9.05;;;;;;;27.52;32.16;99923.78;4877195;29;20522;-89
2021/09/11 15:19:55;;;;;;;10.23;9.30;;;;;;;27.40;32.91;99920.81;4880808;29;20049;-91
2021/09/11 15:22:22;;;;;;;9.77;8.88;;;;;;;27.11;32.75;99916.47;4882971;29;20045;-87
2021/09/11 15:24:49;;;;;;;10.18;9.27;;;;;;;27.07;33.04;99917.88;4882147;29;20093;-86
2021/09/11 15:27:16;;;;;;;10.88;9.38;;;;;;;27.09;34.36;99915.81;4880767;29;20559;-85
2021/09/11 15:29:43;;;;;;;12.73;8.43;;;;;;;27.25;33.94;99919.25;4882321;29;20476;-90
2021/09/11 15:32:10;;;;;;;10.15;9.18;;;;;;;27.20;31.64;99910.97;4881591;29;20044;-81
2021/09/11 15:34:37;;;;;;;13.55;9.02;;;;;;;27.36;31.81;99910.69;4879451;29;20045;-83
2021/09/11 15:37:04;;;;;;;10.13;9.00;;;;;;;27.27;30.90;99911.84;4876067;29;20074;-85
2021/09/11 15:39:32;;;;;;;8.55;7.75;;;;;;;27.27;31.57;99911.84;4886836;29;20049;-84
2021/09/11 15:41:59;;;;;;;16.67;9.55;;;;;;;27.34;31.04;99908.22;4893518;29;20067;-82
2021/09/11 15:44:26;;;;;;;10.90;8.68;;;;;;;27.35;31.89;99906.38;4878142;29;20041;-79
2021/09/11 15:46:53;;;;;;;10.73;8.02;;;;;;;27.24;32.75;99898.88;4878153;29;20072;-83
2021/09/11 15:49:20;;;;;;;11.70;8.73;;;;;;;27.14;33.92;99897.34;4874905;29;20041;-85
2021/09/11 15:51:47;;;;;;;9.43;8.43;;;;;;;27.25;32.26;99900.50;4878933;29;20110;-84
2021/09/11 15:54:14;;;;;;;11.18;8.68;;;;;;;27.12;31.44;99894.03;4877897;29;20092;-82
2021/09/11 15:56:41;;;;;;;10.77;8.48;;;;;;;27.04;31.61;99898.66;4878475;29;20048;-82
2021/09/11 15:59:08;;;;;;;15.73;8.43;;;;;;;26.98;31.70;99900.25;4878199;29;20048;-80
2021/09/11 16:01:34;;;;;;;9.43;8.45;;;;;;;26.94;32.84;99892.78;4878436;29;20056;-79
2021/09/11 16:04:02;;;;;;;8.95;8.00;;;;;;;27.18;31.70;99894.28;4878975;29;20041;-82
2021/09/11 16:06:29;;;;;;;13.27;8.80;;;;;;;27.19;31.97;99896.75;4877974;29;20041;-78
2021/09/11 16:08:55;;;;;;;10.90;8.75;;;;;;;27.11;31.17;99897.75;4878713;29;20072;-81
2021/09/11 16:11:22;;;;;;;8.00;7.25;;;;;;;26.91;31.51;99899.38;4878630;29;20049;-85
2021/09/11 16:13:49;;;;;;;8.77;7.88;;;;;;;26.98;31.43;99888.72;4875720;29;20049;-85
2021/09/11 16:16:16;;;;;;;11.02;7.88;;;;;;;26.98;31.13;99897.56;4878902;29;20077;-84
2021/09/11 16:18:43;;;;;;;10.73;8.30;;;;;;;26.84;31.55;99895.78;4879191;29;20409;-81
2021/09/11 16:21:11;;;;;;;9.38;8.55;;;;;;;26.85;31.43;99898.28;4878060;29;20037;-78
2021/09/11 16:23:39;;;;;;;8.52;7.00;;;;;;;26.89;31.29;99894.19;4878962;29;20053;-80
2021/09/11 16:26:06;;;;;;;9.98;8.00;;;;;;;26.83;31.55;99899.47;4878112;29;20072;-81
2021/09/11 16:28:33;;;;;;;8.70;7.95;;;;;;;26.70;32.00;99894.84;4878728;29;20041;-80
2021/09/11 16:31:00;;;;;;;14.35;8.13;;;;;;;26.67;31.81;99897.88;4892543;29;20041;-80